Time;durP1;ratioP1;P1;durP2;ratioP2;P2;SDS_P1;SDS_P2;PMS_P1;PMS_P2;Temp;Humidity;BMP_temperature;BMP_pressure;BME280_temperature;BME280_humidity;BME280_pressure;Samples;Min_cycle;Max_cycle;Signal;HPM_P1;HPM_P2
2022/01/12 00:00:17;;;;;;;41.22;22.73;;;3.70;99.90;;;;;;5113103;28;20127;-86
2022/01/12 00:02:44;;;;;;;38.72;22.77;;;3.80;99.90;;;;;;5113396;28;20050;-86
2022/01/12 00:05:09;;;;;;;40.65;22.23;;;3.70;99.90;;;;;;5112258;28;20062;-86
2022/01/12 00:07:35;;;;;;;41.05;24.02;;;3.80;99.90;;;;;;5112999;28;20481;-86
2022/01/12 00:10:01;;;;;;;39.55;22.98;;;3.80;99.90;;;;;;5110489;28;20121;-86
2022/01/12 00:12:26;;;;;;;39.95;23.08;;;3.80;99.90;;;;;;5112695;28;20038;-86
2022/01/12 00:14:52;;;;;;;39.67;22.88;;;3.80;99.90;;;;;;5095932;28;20089;-86
2022/01/12 00:17:18;;;;;;;41.55;23.25;;;3.80;99.90;;;;;;5095541;28;20050;-86
2022/01/12 00:19:44;;;;;;;41.67;23.08;;;3.80;99.90;;;;;;5112162;28;20035;-87
2022/01/12 00:22:10;;;;;;;39.42;22.45;;;3.80;99.90;;;;;;5112485;28;20075;-87
2022/01/12 00:33:12;;;;;;;45.33;22.70;;;3.80;99.90;;;;;;5112463;28;20043;-87
2022/01/12 00:35:39;;;;;;;39.80;22.92;;;3.80;99.90;;;;;;5095913;28;20046;-87
2022/01/12 00:38:06;;;;;;;46.05;25.23;;;3.80;99.90;;;;;;5112136;28;20484;-87
2022/01/12 00:40:32;;;;;;;40.08;23.92;;;3.80;99.90;;;;;;5111883;28;20039;-87
2022/01/12 00:42:58;;;;;;;45.92;24.58;;;3.80;99.90;;;;;;5112143;28;20130;-87
2022/01/12 00:45:24;;;;;;;44.40;23.70;;;3.80;99.90;;;;;;5094865;28;20533;-87
2022/01/12 00:47:50;;;;;;;51.15;27.15;;;3.80;99.90;;;;;;5111775;28;20036;-87
2022/01/12 00:50:17;;;;;;;42.50;23.85;;;3.80;99.90;;;;;;5095064;28;20039;-87
2022/01/12 00:52:43;;;;;;;44.15;25.05;;;3.80;99.90;;;;;;5112255;28;20042;-87
2022/01/12 00:55:09;;;;;;;47.65;25.88;;;3.80;99.90;;;;;;5111275;28;20035;-88
2022/01/12 00:57:35;;;;;;;42.90;25.23;;;3.80;99.90;;;;;;5094821;28;20047;-87
2022/01/12 01:00:00;;;;;;;40.50;24.60;;;3.80;99.90;;;;;;5095068;28;20048;-87
2022/01/12 01:02:26;;;;;;;49.05;25.13;;;3.90;99.90;;;;;;5112026;28;20097;-87
2022/01/12 01:04:52;;;;;;;41.00;23.92;;;3.90;99.90;;;;;;5109993;28;20131;-87
2022/01/12 01:07:18;;;;;;;36.92;22.10;;;3.90;99.90;;;;;;5094838;28;20034;-87
2022/01/12 01:09:45;;;;;;;36.53;21.63;;;3.90;99.90;;;;;;5095087;28;20469;-87
2022/01/12 01:12:11;;;;;;;40.60;23.35;;;3.90;99.90;;;;;;5094730;28;20042;-87
2022/01/12 01:14:47;;;;;;;39.33;23.20;;;3.90;99.90;;;;;;5093728;28;20036;-87
2022/01/12 01:27:54;;;;;;;38.70;23.27;;;3.90;99.90;;;;;;5110983;28;20077;-87
2022/01/12 01:30:20;;;;;;;36.22;20.20;;;3.90;99.90;;;;;;5094012;28;20082;-87
2022/01/12 01:32:46;;;;;;;37.20;24.13;;;3.90;99.90;;;;;;5111326;28;20406;-87
2022/01/12 01:35:12;;;;;;;36.70;23.50;;;3.90;99.90;;;;;;5094021;28;20036;-87
2022/01/12 01:37:41;;;;;;;32.88;20.77;;;3.90;99.90;;;;;;5094416;28;20047;-87
2022/01/12 01:40:08;;;;;;;34.20;21.58;;;4.00;99.90;;;;;;5094378;28;20039;-87
2022/01/12 01:43:07;;;;;;;35.88;21.92;;;4.00;99.90;;;;;;5111073;28;20040;-87
2022/01/12 01:53:45;;;;;;;32.67;21.13;;;4.00;99.90;;;;;;5110674;28;20499;-87
2022/01/12 01:56:10;;;;;;;35.85;21.73;;;4.00;99.90;;;;;;5110955;28;20046;-87
2022/01/12 01:58:37;;;;;;;35.33;21.75;;;4.00;99.90;;;;;;5093984;28;20039;-87
2022/01/12 02:01:03;;;;;;;34.20;20.98;;;4.00;99.90;;;;;;5094116;28;20123;-87
2022/01/12 02:03:30;;;;;;;34.83;21.33;;;4.00;99.90;;;;;;5094369;28;20137;-87
2022/01/12 02:05:56;;;;;;;36.17;22.23;;;4.00;99.90;;;;;;5094979;28;20040;-87
2022/01/12 02:08:22;;;;;;;34.72;23.10;;;4.00;99.90;;;;;;5122604;28;20031;-87
2022/01/12 02:10:55;;;;;;;35.70;21.42;;;4.00;99.90;;;;;;5102238;28;20039;-87
2022/01/12 02:13:21;;;;;;;35.17;22.60;;;4.00;99.90;;;;;;5092650;28;20520;-87
2022/01/12 02:15:47;;;;;;;38.53;22.05;;;4.00;99.90;;;;;;5110492;28;20126;-87
2022/01/12 02:18:35;;;;;;;38.25;22.55;;;4.00;99.90;;;;;;5110953;28;20050;-87
2022/01/12 02:40:42;;;;;;;52.28;27.27;;;4.00;99.90;;;;;;5110719;28;20520;-87
2022/01/12 02:43:14;;;;;;;59.00;28.83;;;4.00;99.90;;;;;;5110037;28;20111;-87
2022/01/12 02:51:28;;;;;;;61.40;30.80;;;4.00;99.90;;;;;;5109992;28;20040;-87
2022/01/12 02:53:54;;;;;;;57.63;27.27;;;4.00;99.90;;;;;;5092986;28;20061;-87
2022/01/12 02:56:27;;;;;;;68.65;30.23;;;4.00;99.90;;;;;;5110345;28;20040;-87
2022/01/12 02:58:53;;;;;;;66.13;31.13;;;4.00;99.90;;;;;;5110265;28;20039;-87
2022/01/12 03:04:00;;;;;;;74.18;31.85;;;4.00;99.90;;;;;;5109916;28;20051;-87
2022/01/12 03:06:33;;;;;;;79.35;33.97;;;4.00;99.90;;;;;;5109855;28;20123;-87
2022/01/12 03:08:59;;;;;;;104.13;33.58;;;4.00;99.90;;;;;;5109886;28;20031;-87
2022/01/12 03:11:26;;;;;;;72.97;32.65;;;4.00;99.90;;;;;;5092857;28;20039;-87
2022/01/12 03:13:53;;;;;;;72.72;31.92;;;4.00;99.90;;;;;;5108984;28;20061;-87
2022/01/12 03:16:22;;;;;;;98.85;36.83;;;4.10;99.90;;;;;;5110023;28;20496;-87
2022/01/12 03:18:56;;;;;;;84.20;32.28;;;4.10;99.90;;;;;;5110286;28;20135;-88
2022/01/12 03:21:29;;;;;;;73.65;32.83;;;4.10;99.90;;;;;;5093090;28;20093;-88
2022/01/12 03:23:55;;;;;;;67.90;32.08;;;4.10;99.90;;;;;;5109513;28;20392;-87
2022/01/12 03:26:22;;;;;;;83.97;34.40;;;4.10;99.90;;;;;;5092897;28;20390;-87
2022/01/12 03:28:52;;;;;;;80.28;33.13;;;4.10;99.90;;;;;;5095045;28;20036;-87
2022/01/12 03:31:22;;;;;;;94.07;34.50;;;4.20;99.90;;;;;;5113851;28;20039;-87
2022/01/12 03:33:54;;;;;;;103.22;32.47;;;4.20;99.90;;;;;;5096175;28;20050;-87
2022/01/12 03:36:26;;;;;;;100.40;31.77;;;4.20;99.90;;;;;;5096585;28;20050;-87
2022/01/12 03:38:54;;;;;;;97.30;33.42;;;4.20;99.90;;;;;;5113713;28;20277;-87
2022/01/12 03:41:21;;;;;;;89.70;34.20;;;4.20;99.90;;;;;;5096927;28;20569;-87
2022/01/12 03:43:47;;;;;;;84.95;36.55;;;4.20;99.90;;;;;;5113187;28;20520;-87
2022/01/12 03:46:14;;;;;;;142.48;38.38;;;4.30;99.90;;;;;;5096201;28;20036;-87
2022/01/12 03:48:41;;;;;;;87.80;36.10;;;4.20;99.90;;;;;;5096109;28;20039;-88
2022/01/12 03:51:06;;;;;;;102.15;36.25;;;4.30;99.90;;;;;;5095906;28;20057;-87
2022/01/12 03:53:32;;;;;;;91.10;33.75;;;4.30;99.90;;;;;;5113006;28;20039;-87
2022/01/12 03:55:57;;;;;;;101.35;36.60;;;4.30;99.90;;;;;;5113536;28;20044;-87
2022/01/12 03:58:23;;;;;;;128.82;36.15;;;4.30;99.90;;;;;;5113235;28;20557;-87
2022/01/12 04:00:48;;;;;;;104.38;37.10;;;4.30;99.90;;;;;;5113097;28;20039;-87
2022/01/12 04:03:15;;;;;;;150.70;37.80;;;4.30;99.90;;;;;;5112645;28;20061;-87
2022/01/12 04:08:26;;;;;;;118.32;36.03;;;4.30;99.90;;;;;;5112677;28;20493;-87
2022/01/12 04:10:54;;;;;;;94.47;35.83;;;4.30;99.90;;;;;;5112678;28;20084;-87
2022/01/12 04:13:22;;;;;;;116.32;35.58;;;4.30;99.90;;;;;;5111827;28;20485;-87
2022/01/12 04:15:52;;;;;;;112.97;37.85;;;4.30;99.90;;;;;;5112521;28;20531;-87
2022/01/12 04:18:18;;;;;;;105.35;38.05;;;4.30;99.90;;;;;;5095262;28;20035;-87
2022/01/12 04:20:46;;;;;;;81.63;34.78;;;4.30;99.90;;;;;;5095576;28;20112;-87
2022/01/12 04:23:19;;;;;;;90.20;36.28;;;4.30;99.90;;;;;;5095486;28;20043;-87
2022/01/12 04:25:49;;;;;;;;;;;4.40;99.90;;;;;;5095842;28;20043;-87
2022/01/12 04:28:17;;;;;;;93.70;32.22;;;4.40;99.90;;;;;;5111979;28;19924;-87
2022/01/12 04:30:44;;;;;;;90.75;33.53;;;4.40;99.90;;;;;;5095509;28;20046;-87
2022/01/12 04:33:10;;;;;;;86.03;33.85;;;4.40;99.90;;;;;;5112215;28;20046;-87
2022/01/12 04:35:37;;;;;;;93.57;36.22;;;4.40;99.90;;;;;;5112753;28;20040;-87
2022/01/12 04:38:04;;;;;;;84.75;34.40;;;4.40;99.90;;;;;;5094741;28;20035;-84
2022/01/12 04:40:30;;;;;;;87.63;33.85;;;4.50;99.90;;;;;;5115084;28;20073;-87
2022/01/12 04:42:56;;;;;;;90.70;36.05;;;4.50;99.90;;;;;;5126084;28;20032;-86
2022/01/12 04:48:07;;;;;;;119.80;38.25;;;4.50;99.90;;;;;;5113234;28;20468;-87
2022/01/12 04:50:37;;;;;;;80.57;33.47;;;4.50;99.90;;;;;;5112660;28;20038;-87
2022/01/12 04:53:03;;;;;;;90.00;35.08;;;4.50;99.90;;;;;;5112334;28;20044;-87
2022/01/12 04:55:29;;;;;;;83.03;36.10;;;4.50;99.90;;;;;;5112176;28;20412;-87
2022/01/12 04:57:54;;;;;;;110.57;36.83;;;4.40;99.90;;;;;;5112155;28;20040;-87
2022/01/12 05:00:21;;;;;;;102.57;38.42;;;4.50;99.90;;;;;;5092762;28;20061;-87
2022/01/12 05:13:36;;;;;;;80.00;34.53;;;4.50;99.90;;;;;;5110604;28;20039;-87
2022/01/12 05:16:02;;;;;;;91.35;37.47;;;4.50;99.90;;;;;;5111622;28;20036;-88
2022/01/12 05:18:29;;;;;;;72.63;33.70;;;4.50;99.90;;;;;;5111559;28;20406;-87
2022/01/12 05:20:54;;;;;;;75.45;35.25;;;4.50;99.90;;;;;;5111691;28;20039;-88
2022/01/12 05:23:20;;;;;;;71.93;33.53;;;4.40;99.90;;;;;;5094524;28;20458;-87
2022/01/12 05:25:46;;;;;;;72.97;35.15;;;4.40;99.90;;;;;;5111356;28;20039;-87
2022/01/12 05:28:13;;;;;;;70.95;33.67;;;4.40;99.90;;;;;;5092979;28;20054;-87
2022/01/12 05:30:38;;;;;;;77.80;33.83;;;4.40;99.90;;;;;;5111245;28;20039;-87
2022/01/12 05:33:04;;;;;;;86.57;35.05;;;4.40;99.90;;;;;;5093445;28;20577;-87
2022/01/12 05:35:33;;;;;;;74.55;34.53;;;4.40;99.90;;;;;;5110623;28;20083;-87
2022/01/12 05:38:02;;;;;;;78.80;33.75;;;4.50;99.90;;;;;;5111078;28;20050;-87
2022/01/12 05:40:28;;;;;;;75.78;34.50;;;4.50;99.90;;;;;;5094166;28;20078;-87
2022/01/12 05:42:55;;;;;;;66.05;32.50;;;4.50;99.90;;;;;;5111174;28;20050;-88
2022/01/12 05:45:22;;;;;;;64.10;30.20;;;4.50;99.90;;;;;;5093817;28;20557;-87
2022/01/12 05:50:16;;;;;;;65.00;29.77;;;4.50;99.90;;;;;;5110204;28;20743;-87
2022/01/12 05:52:42;;;;;;;62.22;29.13;;;4.50;99.90;;;;;;5093760;28;20044;-87
2022/01/12 05:55:09;;;;;;;70.10;32.20;;;4.50;99.90;;;;;;5110761;28;20039;-87
2022/01/12 05:57:35;;;;;;;67.18;32.28;;;4.50;99.90;;;;;;5110971;28;20043;-87
2022/01/12 06:00:05;;;;;;;64.75;32.30;;;4.50;99.90;;;;;;5093913;28;20134;-87
2022/01/12 06:02:31;;;;;;;67.30;31.23;;;4.40;99.90;;;;;;5110625;28;20047;-87
2022/01/12 06:04:56;;;;;;;70.40;30.63;;;4.50;99.90;;;;;;5093120;28;20096;-87
2022/01/12 06:07:22;;;;;;;52.50;27.42;;;4.40;99.90;;;;;;5093665;28;20039;-87
2022/01/12 06:09:48;;;;;;;60.55;29.05;;;4.40;99.90;;;;;;5093782;28;20122;-87
2022/01/12 06:12:13;;;;;;;63.47;29.40;;;4.40;99.90;;;;;;5110329;28;20067;-87
2022/01/12 06:14:41;;;;;;;59.15;30.45;;;4.40;99.90;;;;;;5110537;28;20032;-87
2022/01/12 06:17:08;;;;;;;58.38;29.55;;;4.30;99.90;;;;;;5093560;28;20039;-87
2022/01/12 06:19:33;;;;;;;60.25;29.20;;;4.30;99.90;;;;;;5110910;28;20435;-87
2022/01/12 06:21:59;;;;;;;60.53;29.40;;;4.40;99.90;;;;;;5110457;28;20488;-87
2022/01/12 06:24:25;;;;;;;73.55;32.85;;;4.40;99.90;;;;;;5093667;28;20067;-87
2022/01/12 06:26:51;;;;;;;60.75;30.98;;;4.40;99.90;;;;;;5110435;28;20505;-87
2022/01/12 06:31:49;;;;;;;65.05;31.00;;;4.40;99.90;;;;;;5110340;28;20495;-86
2022/01/12 06:34:15;;;;;;;56.63;29.15;;;4.40;99.90;;;;;;5093208;28;20039;-86
2022/01/12 06:36:41;;;;;;;62.10;31.52;;;4.40;99.90;;;;;;5091587;28;20206;-86
2022/01/12 06:39:10;;;;;;;62.47;31.85;;;4.40;99.90;;;;;;5093277;28;20047;-86
2022/01/12 06:41:40;;;;;;;60.58;29.85;;;4.50;99.90;;;;;;5110675;28;20058;-87
2022/01/12 06:44:07;;;;;;;56.28;29.45;;;4.50;99.90;;;;;;5092996;28;20489;-86
2022/01/12 06:46:34;;;;;;;60.88;30.48;;;4.50;99.90;;;;;;5110299;28;20169;-87
2022/01/12 06:49:01;;;;;;;62.00;32.55;;;4.50;99.90;;;;;;5109749;28;20043;-87
2022/01/12 06:51:27;;;;;;;56.38;30.52;;;4.50;99.90;;;;;;5093078;28;20036;-87
2022/01/12 06:53:54;;;;;;;56.28;29.33;;;4.50;99.90;;;;;;5092826;28;20416;-87
2022/01/12 06:56:20;;;;;;;66.43;30.95;;;4.50;99.90;;;;;;5093471;28;20047;-87
2022/01/12 06:58:46;;;;;;;54.67;28.48;;;4.50;99.90;;;;;;5093308;28;20040;-87
2022/01/12 07:01:12;;;;;;;60.95;29.38;;;4.50;99.90;;;;;;5093383;28;20400;-86
2022/01/12 07:03:38;;;;;;;59.83;30.70;;;4.50;99.90;;;;;;5096218;28;20516;-87
2022/01/12 07:06:04;;;;;;;55.75;29.23;;;4.50;99.90;;;;;;5114276;28;20031;-86
2022/01/12 07:08:32;;;;;;;60.00;28.70;;;4.50;99.90;;;;;;5114021;28;20412;-87
2022/01/12 07:10:58;;;;;;;62.97;29.40;;;4.50;99.90;;;;;;5098249;28;20035;-87
2022/01/12 07:13:24;;;;;;;55.00;28.40;;;4.40;99.90;;;;;;5098575;28;20071;-87
2022/01/12 07:15:50;;;;;;;53.35;26.73;;;4.40;99.90;;;;;;5116571;28;20055;-87
2022/01/12 07:18:16;;;;;;;63.67;29.80;;;4.40;99.90;;;;;;5128625;28;20044;-86
2022/01/12 07:20:42;;;;;;;49.13;25.40;;;4.40;99.90;;;;;;5094204;28;20032;-88
2022/01/12 07:23:10;;;;;;;52.95;24.83;;;4.30;99.90;;;;;;5113760;28;20511;-88
2022/01/12 07:25:35;;;;;;;56.13;27.38;;;4.30;99.90;;;;;;5113741;28;20035;-86
2022/01/12 07:28:01;;;;;;;51.35;26.40;;;4.30;99.90;;;;;;5113507;28;20539;-86
2022/01/12 07:30:27;;;;;;;52.17;25.70;;;4.30;99.90;;;;;;5096356;28;20046;-87
2022/01/12 07:32:52;;;;;;;55.40;26.90;;;4.30;99.90;;;;;;5113213;28;20058;-87
2022/01/12 07:35:19;;;;;;;60.83;29.65;;;4.30;99.90;;;;;;5096060;28;20089;-87
2022/01/12 07:37:44;;;;;;;59.58;28.33;;;4.30;99.90;;;;;;5113233;28;20043;-86
2022/01/12 07:40:10;;;;;;;56.65;27.52;;;4.40;99.90;;;;;;5096723;28;20127;-87
2022/01/12 07:42:36;;;;;;;54.72;26.58;;;4.40;99.90;;;;;;5113551;28;20047;-87
2022/01/12 07:45:03;;;;;;;55.33;28.35;;;4.40;99.90;;;;;;5096355;28;20036;-87
2022/01/12 07:47:30;;;;;;;55.70;27.15;;;4.40;99.90;;;;;;5096919;28;20666;-86
2022/01/12 07:49:57;;;;;;;54.60;26.13;;;4.40;99.90;;;;;;5096781;28;20047;-87
2022/01/12 07:52:23;;;;;;;52.50;25.70;;;4.40;99.90;;;;;;5096197;28;20089;-86
2022/01/12 07:54:49;;;;;;;54.83;25.00;;;4.40;99.90;;;;;;5113276;28;20043;-86
2022/01/12 07:57:15;;;;;;;60.03;28.98;;;4.40;99.90;;;;;;5113402;28;20039;-86
2022/01/12 07:59:41;;;;;;;55.78;28.45;;;4.50;99.90;;;;;;5096363;28;20040;-86
2022/01/12 08:02:07;;;;;;;51.35;24.85;;;4.50;99.90;;;;;;5113243;28;20039;-87
2022/01/12 08:04:33;;;;;;;60.88;28.92;;;4.50;99.90;;;;;;5113042;28;20540;-87
2022/01/12 08:06:59;;;;;;;50.08;25.48;;;4.50;99.90;;;;;;5113159;28;20051;-87
2022/01/12 08:09:24;;;;;;;50.60;25.25;;;4.50;99.90;;;;;;5110987;28;20043;-87
2022/01/12 08:11:50;;;;;;;49.08;24.25;;;4.50;99.90;;;;;;5095442;28;20074;-87
2022/01/12 08:14:15;;;;;;;50.15;25.55;;;4.50;99.90;;;;;;5111626;28;20027;-87
2022/01/12 08:16:42;;;;;;;46.72;23.65;;;4.60;99.90;;;;;;5112720;28;20073;-87
2022/01/12 08:19:09;;;;;;;50.78;25.27;;;4.60;99.90;;;;;;5111941;28;20112;-87
2022/01/12 08:21:35;;;;;;;45.88;23.73;;;4.60;99.90;;;;;;5112300;28;20032;-87
2022/01/12 08:24:00;;;;;;;47.97;23.27;;;4.60;99.90;;;;;;5094621;28;20108;-86
2022/01/12 08:26:26;;;;;;;48.83;23.35;;;4.50;99.90;;;;;;5095656;28;20046;-86
2022/01/12 08:28:52;;;;;;;46.53;24.38;;;4.60;99.90;;;;;;5112698;28;20071;-86
2022/01/12 08:31:20;;;;;;;44.20;21.83;;;4.60;99.90;;;;;;5112177;28;20466;-86
2022/01/12 08:33:47;;;;;;;46.50;21.83;;;4.50;99.90;;;;;;5112173;28;20036;-86
2022/01/12 08:36:13;;;;;;;38.50;20.70;;;4.50;99.90;;;;;;5112041;28;20087;-86
2022/01/12 08:38:39;;;;;;;34.85;19.67;;;4.50;99.90;;;;;;5111998;28;20039;-86
2022/01/12 08:41:05;;;;;;;37.03;19.85;;;4.40;99.90;;;;;;5109567;28;20457;-86
2022/01/12 08:43:31;;;;;;;39.33;20.92;;;4.40;99.90;;;;;;5112073;28;20035;-87
2022/01/12 08:45:56;;;;;;;38.35;20.00;;;4.40;99.90;;;;;;5112603;28;20065;-86
2022/01/12 08:48:22;;;;;;;36.60;19.02;;;4.30;99.90;;;;;;5094287;28;20424;-87
2022/01/12 08:50:48;;;;;;;39.90;20.42;;;4.30;99.90;;;;;;5111992;28;20036;-86
2022/01/12 08:53:13;;;;;;;40.42;20.15;;;4.30;99.90;;;;;;5111401;28;20032;-86
2022/01/12 08:55:39;;;;;;;37.97;19.25;;;4.30;99.90;;;;;;5108565;28;20492;-85
2022/01/12 08:58:05;;;;;;;42.08;21.02;;;4.20;99.90;;;;;;5094719;28;20047;-86
2022/01/12 09:00:31;;;;;;;42.47;19.08;;;4.20;99.90;;;;;;5094571;28;20043;-85
2022/01/12 09:02:56;;;;;;;47.10;21.70;;;4.20;99.90;;;;;;5093400;28;20051;-85
2022/01/12 09:05:22;;;;;;;54.10;22.83;;;4.30;99.90;;;;;;5111426;28;20079;-86
2022/01/12 09:07:48;;;;;;;47.33;21.85;;;4.40;99.90;;;;;;5111700;28;20400;-86
2022/01/12 09:10:14;;;;;;;48.83;22.20;;;4.40;99.90;;;;;;5112040;28;20036;-86
2022/01/12 09:12:39;;;;;;;51.30;22.98;;;4.50;99.90;;;;;;5112013;28;20040;-87
2022/01/12 09:15:07;;;;;;;50.13;21.85;;;4.50;99.90;;;;;;5094258;28;20531;-86
2022/01/12 09:17:33;;;;;;;50.42;22.30;;;4.60;99.90;;;;;;5094988;28;20043;-86
2022/01/12 09:19:58;;;;;;;52.78;21.20;;;4.70;99.90;;;;;;5111525;28;20097;-86
2022/01/12 09:22:24;;;;;;;52.92;20.90;;;4.70;99.90;;;;;;5112273;28;20035;-85
2022/01/12 09:24:50;;;;;;;54.75;22.80;;;4.80;99.90;;;;;;5093985;28;20489;-86
2022/01/12 09:27:17;;;;;;;49.47;21.35;;;4.80;99.90;;;;;;5110784;28;20454;-86
2022/01/12 09:29:43;;;;;;;57.03;21.65;;;4.80;99.90;;;;;;5094740;28;20064;-85
2022/01/12 09:32:09;;;;;;;54.85;21.58;;;4.90;99.90;;;;;;5094071;28;20031;-86
2022/01/12 09:34:35;;;;;;;56.42;20.52;;;4.90;99.90;;;;;;5094202;28;20032;-86
2022/01/12 09:37:02;;;;;;;50.17;19.85;;;4.90;99.90;;;;;;5093212;28;20082;-85
2022/01/12 09:39:28;;;;;;;52.17;20.20;;;5.00;99.90;;;;;;5111705;28;20061;-86
2022/01/12 09:41:53;;;;;;;51.08;19.75;;;5.00;99.90;;;;;;5111365;28;20122;-86
2022/01/12 09:44:19;;;;;;;52.10;19.30;;;5.10;99.90;;;;;;5111400;28;20136;-86
2022/01/12 09:46:46;;;;;;;49.85;19.20;;;5.10;99.90;;;;;;5094715;28;20035;-86
2022/01/12 09:49:12;;;;;;;56.45;19.38;;;5.10;99.90;;;;;;5095817;28;20484;-86
2022/01/12 09:51:38;;;;;;;45.15;18.05;;;5.10;99.90;;;;;;5100535;28;20042;-86
2022/01/12 09:54:03;;;;;;;48.50;18.15;;;5.20;99.90;;;;;;5114244;28;20042;-86
2022/01/12 09:56:31;;;;;;;48.83;18.65;;;5.20;99.90;;;;;;5090869;28;20035;-85
2022/01/12 09:58:59;;;;;;;57.78;18.35;;;5.20;99.90;;;;;;5111219;28;20445;-86
2022/01/12 10:01:39;;;;;;;44.92;16.45;;;5.30;99.90;;;;;;5094092;28;20035;-86
2022/01/12 10:04:07;;;;;;;47.05;15.77;;;5.30;99.90;;;;;;5093533;28;20118;-86
2022/01/12 10:06:42;;;;;;;41.53;15.82;;;5.30;99.90;;;;;;5094128;28;20466;-86
2022/01/12 10:09:08;;;;;;;45.67;16.15;;;5.30;99.90;;;;;;5093501;28;20089;-86
2022/01/12 10:11:34;;;;;;;47.50;15.23;;;5.30;99.90;;;;;;5116547;28;20089;-86
2022/01/12 10:14:02;;;;;;;44.33;15.80;;;5.30;99.90;;;;;;5115206;28;20040;-85
2022/01/12 10:16:28;;;;;;;41.10;14.85;;;5.30;99.90;;;;;;5110963;28;20089;-86
2022/01/12 10:18:57;;;;;;;45.75;15.07;;;5.30;99.90;;;;;;5110542;28;20039;-86
2022/01/12 10:21:26;;;;;;;39.92;13.15;;;5.40;99.90;;;;;;5093769;28;20040;-86
2022/01/12 10:24:08;;;;;;;42.00;13.10;;;5.40;99.90;;;;;;5091780;28;20043;-86
2022/01/12 10:26:43;;;;;;;44.35;13.23;;;5.50;99.90;;;;;;5106598;28;20044;-86
2022/01/12 10:29:15;;;;;;;39.58;11.68;;;5.50;99.90;;;;;;5109788;28;20460;-86
2022/01/12 10:31:53;;;;;;;38.70;12.40;;;5.60;99.90;;;;;;5110583;28;20073;-85
2022/01/12 10:34:22;;;;;;;33.20;10.85;;;5.60;99.90;;;;;;5109569;28;20031;-86
2022/01/12 10:36:49;;;;;;;35.33;11.38;;;5.70;99.90;;;;;;5091457;28;20046;-86
2022/01/12 10:39:16;;;;;;;36.28;11.85;;;5.80;99.90;;;;;;5110193;28;20093;-86
2022/01/12 10:42:05;;;;;;;30.40;10.63;;;5.80;99.90;;;;;;5094014;28;20550;-85
2022/01/12 10:44:37;;;;;;;32.10;9.65;;;5.90;99.90;;;;;;5109789;28;20039;-86
2022/01/12 10:47:16;;;;;;;32.40;9.63;;;5.90;99.90;;;;;;5110083;28;20142;-87
2022/01/12 10:50:01;;;;;;;31.58;9.68;;;6.00;99.90;;;;;;5110396;28;20140;-87
2022/01/12 10:52:47;;;;;;;31.05;9.50;;;6.00;99.90;;;;;;5092896;28;20036;-86
2022/01/12 10:55:15;;;;;;;33.35;9.68;;;6.00;99.90;;;;;;5109501;28;20044;-85
2022/01/12 10:57:44;;;;;;;28.30;8.48;;;6.10;99.90;;;;;;5092701;28;20036;-86
2022/01/12 11:00:21;;;;;;;31.42;8.50;;;6.10;99.90;;;;;;5110497;28;20043;-85
2022/01/12 11:02:50;;;;;;;28.00;7.63;;;6.10;99.90;;;;;;5093238;28;20039;-85
2022/01/12 11:05:17;;;;;;;34.28;9.27;;;6.10;99.90;;;;;;5108535;28;20047;-86
2022/01/12 11:07:43;;;;;;;26.38;7.72;;;6.10;99.90;;;;;;5108587;28;20032;-85
2022/01/12 11:10:10;;;;;;;24.02;6.85;;;6.20;99.90;;;;;;5092572;28;20035;-86
2022/01/12 11:12:37;;;;;;;32.45;8.07;;;6.20;99.90;;;;;;5093142;28;20122;-86
2022/01/12 11:15:11;;;;;;;29.85;7.35;;;6.20;99.90;;;;;;5109146;28;20484;-86
2022/01/12 11:17:38;;;;;;;28.27;7.40;;;6.20;99.90;;;;;;5109563;28;20457;-86
2022/01/12 11:20:07;;;;;;;30.88;8.63;;;6.20;99.90;;;;;;5109750;28;20055;-86
2022/01/12 11:22:58;;;;;;;22.17;7.45;;;6.20;99.90;;;;;;5092321;28;20063;-86
2022/01/12 11:25:44;;;;;;;25.13;8.45;;;6.20;99.90;;;;;;5091978;28;20753;-86
2022/01/12 11:28:15;;;;;;;27.17;7.85;;;6.20;99.90;;;;;;5092306;28;20044;-85
2022/01/12 11:30:50;;;;;;;24.70;7.00;;;6.10;99.90;;;;;;5093335;28;20122;-85
2022/01/12 11:33:33;;;;;;;25.30;7.47;;;6.20;99.90;;;;;;5109756;28;20525;-86
2022/01/12 11:36:02;;;;;;;;;;;6.20;99.90;;;;;;5092569;28;20043;-86
2022/01/12 11:38:35;;;;;;;28.50;7.03;;;6.10;99.90;;;;;;5092667;28;19938;-85
2022/01/12 11:41:21;;;;;;;30.83;8.00;;;6.20;99.90;;;;;;5092802;28;20035;-85
2022/01/12 11:43:50;;;;;;;24.35;7.32;;;6.20;99.90;;;;;;5092341;28;20073;-85
2022/01/12 11:46:22;;;;;;;34.47;7.90;;;6.20;99.90;;;;;;5109906;28;20040;-86
2022/01/12 11:48:53;;;;;;;26.67;8.07;;;6.30;99.90;;;;;;5106285;28;20130;-87
2022/01/12 11:51:31;;;;;;;30.80;8.32;;;6.30;99.90;;;;;;5095402;28;20036;-86
2022/01/12 11:54:09;;;;;;;29.20;8.30;;;6.40;99.90;;;;;;5092545;28;20036;-85
2022/01/12 11:56:37;;;;;;;31.05;7.35;;;6.50;99.90;;;;;;5086153;28;20054;-86
2022/01/12 11:59:11;;;;;;;26.33;7.63;;;6.60;99.90;;;;;;5076027;28;20044;-87
2022/01/12 12:01:49;;;;;;;27.67;7.75;;;6.60;99.90;;;;;;5075645;28;20064;-86
2022/01/12 12:04:51;;;;;;;28.60;8.60;;;6.70;99.90;;;;;;5075471;28;20047;-87
2022/01/12 12:07:17;;;;;;;30.63;8.47;;;6.70;99.90;;;;;;5075571;28;20040;-87
2022/01/12 12:09:44;;;;;;;27.45;9.10;;;6.70;99.90;;;;;;5075349;28;20533;-86
2022/01/12 12:12:18;;;;;;;24.42;8.60;;;6.60;99.90;;;;;;5075547;28;20075;-87
2022/01/12 12:14:47;;;;;;;26.42;7.88;;;6.70;99.90;;;;;;5075650;28;20736;-87
2022/01/12 12:17:14;;;;;;;29.63;9.65;;;6.60;99.90;;;;;;5075410;28;20103;-87
2022/01/12 12:19:40;;;;;;;32.65;9.93;;;6.60;99.90;;;;;;5092028;28;20409;-87
2022/01/12 12:22:18;;;;;;;27.15;9.25;;;6.60;99.90;;;;;;5075529;28;20061;-87
2022/01/12 12:24:46;;;;;;;25.65;8.55;;;6.60;99.90;;;;;;5085864;28;20036;-85
2022/01/12 12:27:20;;;;;;;25.52;8.07;;;6.60;99.90;;;;;;5095716;28;20091;-84
2022/01/12 12:29:48;;;;;;;31.10;8.98;;;6.60;99.90;;;;;;5112824;28;20400;-85
2022/01/12 12:32:14;;;;;;;31.88;8.77;;;6.60;99.90;;;;;;5112471;28;20036;-86
2022/01/12 12:34:42;;;;;;;27.15;9.68;;;6.70;99.90;;;;;;5112409;28;20054;-86
2022/01/12 12:37:11;;;;;;;30.02;10.63;;;6.70;99.90;;;;;;5094377;28;20074;-87
2022/01/12 12:39:40;;;;;;;28.45;9.93;;;6.70;99.90;;;;;;5114132;28;20093;-87
2022/01/12 12:42:15;;;;;;;26.60;9.32;;;6.60;99.90;;;;;;5124219;28;20197;-86
2022/01/12 12:44:40;;;;;;;25.20;9.68;;;6.60;99.90;;;;;;5116988;28;20085;-87
2022/01/12 12:47:17;;;;;;;30.75;9.90;;;6.60;99.90;;;;;;5096231;28;20039;-87
2022/01/12 12:49:44;;;;;;;27.20;10.00;;;6.70;99.90;;;;;;5095553;28;20066;-87
2022/01/12 12:52:10;;;;;;;25.77;9.02;;;6.70;99.90;;;;;;5094979;28;20038;-86
2022/01/12 12:54:42;;;;;;;27.95;9.77;;;7.00;99.90;;;;;;5112558;28;20036;-87
2022/01/12 12:57:10;;;;;;;25.20;9.48;;;7.30;99.90;;;;;;5111950;28;20056;-87
2022/01/12 12:59:36;;;;;;;23.40;9.95;;;7.60;99.90;;;;;;5095104;28;20047;-87
2022/01/12 13:02:12;;;;;;;30.13;10.82;;;7.50;99.90;;;;;;5112231;28;20047;-87
2022/01/12 13:04:38;;;;;;;27.25;9.15;;;7.50;99.90;;;;;;5094346;28;20040;-87
2022/01/12 13:07:17;;;;;;;30.48;11.25;;;7.50;99.90;;;;;;5095030;28;20047;-87
2022/01/12 13:09:43;;;;;;;22.83;8.57;;;7.40;99.90;;;;;;5111602;28;20043;-87
2022/01/12 13:12:09;;;;;;;24.05;9.02;;;7.40;99.90;;;;;;5111787;28;20036;-87
2022/01/12 13:14:46;;;;;;;22.50;8.43;;;7.40;99.90;;;;;;5095022;28;20176;-87
2022/01/12 13:17:12;;;;;;;24.23;8.68;;;7.50;99.90;;;;;;5111588;28;20039;-87
2022/01/12 13:22:31;;;;;;;27.17;8.90;;;8.90;99.90;;;;;;5111798;28;20044;-87
2022/01/12 13:25:01;;;;;;;26.35;9.25;;;9.00;99.90;;;;;;5109862;28;20040;-87
2022/01/12 13:27:27;;;;;;;26.65;9.00;;;8.80;99.90;;;;;;5094309;28;20040;-87
2022/01/12 13:29:53;;;;;;;23.08;9.57;;;8.60;99.90;;;;;;5094613;28;20084;-87
2022/01/12 13:32:20;;;;;;;25.67;8.38;;;8.50;99.90;;;;;;5111010;28;20126;-87
2022/01/12 13:35:07;;;;;;;23.77;8.30;;;8.30;99.90;;;;;;5111496;28;20058;-87
2022/01/12 13:37:33;;;;;;;28.75;9.10;;;8.10;99.90;;;;;;5112629;28;20035;-87
2022/01/12 13:40:17;;;;;;;32.88;10.38;;;7.90;99.90;;;;;;5094206;28;20509;-86
2022/01/12 13:43:02;;;;;;;28.00;9.80;;;7.80;99.90;;;;;;5112521;28;20039;-87
2022/01/12 13:45:38;;;;;;;27.63;9.50;;;7.60;99.90;;;;;;5111332;28;20043;-86
2022/01/12 13:48:12;;;;;;;29.83;10.20;;;7.50;99.90;;;;;;5094285;28;20043;-86
2022/01/12 13:50:41;;;;;;;27.92;10.27;;;7.50;99.90;;;;;;5093794;28;20031;-86
2022/01/12 13:53:06;;;;;;;31.58;10.13;;;7.40;99.90;;;;;;5093569;28;20557;-86
2022/01/12 13:55:34;;;;;;;27.95;9.85;;;7.40;99.90;;;;;;5094160;28;20126;-86
2022/01/12 13:58:10;;;;;;;25.60;9.13;;;7.30;99.90;;;;;;5110768;28;20035;-86
2022/01/12 14:00:37;;;;;;;26.48;9.32;;;7.20;99.90;;;;;;5111150;28;20492;-86
2022/01/12 14:03:20;;;;;;;25.10;9.80;;;7.30;99.90;;;;;;5111996;28;20046;-86